Time;durP1;ratioP1;P1;durP2;ratioP2;P2;SDS_P1;SDS_P2;PMS_P1;PMS_P2;Temp;Humidity;BMP_temperature;BMP_pressure;BME280_temperature;BME280_humidity;BME280_pressure;Samples;Min_cycle;Max_cycle;Signal;HPM_P1;HPM_P2
2022/04/28 00:00:02;;;;;;;8.57;5.83;;;13.40;55.90;;;;;;5075543;28;20448;-66
2022/04/28 00:02:29;;;;;;;6.43;5.80;;;13.40;56.40;;;;;;5075456;28;20571;-66
2022/04/28 00:04:56;;;;;;;7.47;6.20;;;13.30;56.80;;;;;;5075835;28;20827;-66
2022/04/28 00:07:23;;;;;;;6.20;5.10;;;13.30;57.00;;;;;;5074940;28;20939;-66
2022/04/28 00:09:50;;;;;;;7.97;5.90;;;13.20;57.00;;;;;;5075337;28;20441;-66
2022/04/28 00:12:16;;;;;;;9.20;5.93;;;13.10;57.00;;;;;;5074895;28;20975;-65
2022/04/28 00:14:43;;;;;;;7.33;5.67;;;13.10;57.50;;;;;;5074843;28;20947;-66
2022/04/28 00:17:11;;;;;;;6.53;5.83;;;13.10;57.90;;;;;;5074942;28;20493;-66
2022/04/28 00:19:38;;;;;;;7.60;6.40;;;13.10;58.20;;;;;;5075021;28;20850;-66
2022/04/28 00:22:05;;;;;;;8.83;6.87;;;13.10;58.30;;;;;;5075020;28;20468;-66
2022/04/28 00:24:32;;;;;;;5.87;5.33;;;13.00;58.20;;;;;;5075051;28;20436;-66
2022/04/28 00:26:59;;;;;;;6.27;5.70;;;13.00;58.50;;;;;;5074565;28;20830;-66
2022/04/28 00:29:26;;;;;;;6.87;6.27;;;13.00;58.80;;;;;;5074281;28;20792;-66
2022/04/28 00:31:52;;;;;;;8.43;6.47;;;13.00;59.00;;;;;;5074721;28;20460;-66
2022/04/28 00:34:20;;;;;;;9.00;6.13;;;12.90;59.00;;;;;;5074749;28;20455;-66
2022/04/28 00:36:47;;;;;;;6.77;5.93;;;12.90;59.20;;;;;;5074294;28;20962;-66
2022/04/28 00:39:14;;;;;;;6.20;5.73;;;12.90;59.30;;;;;;5074635;28;20487;-66
2022/04/28 00:41:41;;;;;;;9.13;6.20;;;12.80;59.30;;;;;;5074485;28;20471;-66
2022/04/28 00:44:10;;;;;;;6.40;5.80;;;12.70;59.40;;;;;;5074234;28;20458;-66
2022/04/28 00:46:37;;;;;;;8.90;6.70;;;12.60;59.50;;;;;;5074263;28;20456;-66
2022/04/28 00:51:50;;;;;;;6.40;5.50;;;12.50;59.80;;;;;;5073979;28;20467;-66
2022/04/28 00:54:17;;;;;;;9.07;6.30;;;12.50;59.80;;;;;;5074243;28;20449;-66
2022/04/28 00:56:44;;;;;;;7.37;5.93;;;12.40;59.90;;;;;;5074055;28;20459;-66
2022/04/28 00:59:12;;;;;;;7.23;6.33;;;12.40;60.10;;;;;;5074224;28;20534;-66
2022/04/28 01:01:39;;;;;;;6.77;6.07;;;12.30;60.40;;;;;;5073846;28;20987;-66
2022/04/28 01:04:06;;;;;;;6.63;6.00;;;12.30;61.00;;;;;;5074199;28;20449;-66
2022/04/28 01:06:33;;;;;;;8.20;6.57;;;12.30;61.20;;;;;;5073733;28;20451;-66
2022/04/28 01:09:01;;;;;;;7.73;6.83;;;12.20;62.00;;;;;;5074095;28;20484;-66
2022/04/28 01:11:29;;;;;;;10.87;6.97;;;12.10;61.20;;;;;;5073892;28;20472;-66
2022/04/28 01:13:56;;;;;;;7.30;6.50;;;12.10;61.80;;;;;;5074007;28;20448;-66
2022/04/28 01:16:23;;;;;;;7.20;6.50;;;12.10;62.20;;;;;;5073556;28;20825;-66
2022/04/28 01:18:49;;;;;;;10.73;6.70;;;12.10;62.70;;;;;;5073564;28;21007;-66
2022/04/28 01:21:18;;;;;;;18.33;7.90;;;12.10;62.80;;;;;;5073819;28;20469;-67
2022/04/28 01:23:44;;;;;;;7.43;6.70;;;12.10;63.00;;;;;;5073879;28;20523;-66
2022/04/28 01:26:14;;;;;;;8.47;6.43;;;12.10;63.20;;;;;;5073809;28;20455;-65
2022/04/28 01:28:41;;;;;;;12.03;7.30;;;12.00;62.80;;;;;;5074131;28;20498;-65
2022/04/28 01:31:08;;;;;;;8.00;6.07;;;12.00;62.70;;;;;;5073594;28;20464;-66
2022/04/28 01:33:34;;;;;;;7.53;6.00;;;11.90;62.90;;;;;;5073705;28;20444;-66
2022/04/28 01:36:01;;;;;;;7.50;6.33;;;11.90;63.40;;;;;;5073678;28;20453;-66
2022/04/28 01:38:29;;;;;;;9.40;7.00;;;11.90;63.80;;;;;;5073522;28;20476;-66
2022/04/28 01:40:56;;;;;;;9.53;6.43;;;11.90;64.20;;;;;;5073555;28;20465;-65
2022/04/28 01:43:23;;;;;;;9.07;7.10;;;11.90;64.70;;;;;;5073564;28;20453;-65
2022/04/28 01:45:50;;;;;;;8.20;6.43;;;11.90;64.90;;;;;;5073563;28;20440;-66
2022/04/28 01:48:17;;;;;;;6.80;6.17;;;11.80;64.70;;;;;;5073026;28;20822;-66
2022/04/28 01:54:57;;;;;;;11.07;6.70;;;11.80;65.10;;;;;;5073528;28;20444;-66
2022/04/28 01:56:16;;;;;;;8.87;7.97;;;11.80;65.40;;;;;;5073263;28;20431;-65
2022/04/28 01:58:43;;;;;;;12.57;8.30;;;11.80;65.80;;;;;;5073095;28;20484;-65
2022/04/28 02:01:10;;;;;;;12.37;9.00;;;11.80;66.00;;;;;;5073109;28;20983;-65
2022/04/28 02:03:37;;;;;;;8.43;7.50;;;11.70;66.30;;;;;;5073348;28;20448;-65
2022/04/28 02:06:03;;;;;;;10.30;8.20;;;11.70;66.30;;;;;;5073291;28;20444;-65
2022/04/28 02:08:31;;;;;;;8.30;7.43;;;11.70;66.30;;;;;;5073001;28;20437;-65
2022/04/28 02:11:00;;;;;;;7.77;7.00;;;11.70;66.40;;;;;;5073241;28;20472;-65
2022/04/28 02:13:26;;;;;;;8.70;7.80;;;11.70;66.60;;;;;;5073205;28;20455;-65
2022/04/28 02:15:53;;;;;;;8.20;7.20;;;11.60;66.50;;;;;;5072938;28;20449;-65
2022/04/28 02:18:20;;;;;;;9.37;8.43;;;11.60;66.60;;;;;;5073158;28;20476;-65
2022/04/28 02:20:46;;;;;;;12.60;8.03;;;11.60;66.80;;;;;;5072799;28;20448;-66
2022/04/28 02:23:13;;;;;;;12.00;8.10;;;11.60;66.90;;;;;;5072987;28;20452;-66
2022/04/28 02:25:41;;;;;;;10.87;7.90;;;11.50;66.90;;;;;;5073159;28;20531;-66
2022/04/28 02:28:08;;;;;;;9.57;8.03;;;11.50;67.20;;;;;;5073395;28;20429;-66
2022/04/28 02:30:35;;;;;;;11.00;8.10;;;11.40;67.40;;;;;;5073096;28;20466;-66
2022/04/28 02:33:11;;;;;;;9.73;8.43;;;11.40;67.80;;;;;;5073177;28;20453;-66
2022/04/28 02:35:38;;;;;;;11.80;9.00;;;11.40;68.00;;;;;;5073032;28;20428;-66
2022/04/28 02:38:05;;;;;;;11.47;8.30;;;11.40;68.20;;;;;;5072945;28;20484;-66
2022/04/28 02:40:32;;;;;;;13.73;8.57;;;11.30;68.00;;;;;;5073239;28;20447;-66
2022/04/28 02:43:00;;;;;;;10.27;9.00;;;11.30;68.40;;;;;;5072742;28;20468;-66
2022/04/28 02:45:27;;;;;;;9.20;8.40;;;11.30;68.50;;;;;;5073044;28;20464;-66
2022/04/28 02:47:54;;;;;;;13.23;9.00;;;11.30;68.70;;;;;;5073182;28;20459;-66
2022/04/28 02:50:21;;;;;;;12.10;8.57;;;11.20;68.60;;;;;;5072727;28;20452;-66
2022/04/28 02:52:50;;;;;;;11.40;8.93;;;11.20;68.80;;;;;;5072873;28;20525;-66
2022/04/28 02:55:17;;;;;;;12.10;8.57;;;11.20;68.80;;;;;;5072876;28;20475;-65
2022/04/28 02:57:44;;;;;;;8.90;7.87;;;11.10;68.90;;;;;;5072812;28;20452;-66
2022/04/28 03:00:12;;;;;;;11.97;8.10;;;11.10;69.10;;;;;;5074937;28;20828;-66
2022/04/28 03:02:39;;;;;;;14.83;9.07;;;11.10;69.50;;;;;;5076372;28;20472;-66
2022/04/28 03:05:07;;;;;;;11.77;9.60;;;11.00;69.60;;;;;;5076220;28;20445;-66
2022/04/28 03:10:49;;;;;;;13.93;9.67;;;11.00;69.90;;;;;;5076219;28;20409;-66
2022/04/28 03:13:17;;;;;;;10.97;8.90;;;11.00;69.70;;;;;;5076082;28;20935;-65
2022/04/28 03:15:46;;;;;;;11.13;9.20;;;10.90;69.50;;;;;;5076325;28;20716;-65
2022/04/28 03:18:13;;;;;;;10.47;8.60;;;10.90;69.90;;;;;;5076154;28;20445;-66
2022/04/28 03:20:40;;;;;;;10.27;9.13;;;10.80;70.00;;;;;;5076854;28;20465;-66
2022/04/28 03:23:07;;;;;;;10.63;8.93;;;10.80;69.80;;;;;;5076137;28;20441;-66
2022/04/28 03:25:34;;;;;;;11.80;9.00;;;10.80;70.30;;;;;;5076187;28;20840;-65
2022/04/28 03:28:01;;;;;;;13.43;9.83;;;10.70;70.30;;;;;;5075700;28;20448;-66
2022/04/28 03:30:28;;;;;;;11.73;9.00;;;10.70;70.40;;;;;;5075652;28;20449;-65
2022/04/28 03:32:56;;;;;;;11.20;8.50;;;10.70;70.40;;;;;;5076103;28;20476;-66
2022/04/28 03:35:23;;;;;;;9.47;8.10;;;10.70;70.40;;;;;;5075672;28;20445;-66
2022/04/28 03:37:49;;;;;;;11.97;9.37;;;10.60;70.10;;;;;;5075844;28;20475;-66
2022/04/28 03:40:17;;;;;;;10.87;9.03;;;10.60;70.20;;;;;;5075497;28;20476;-66
2022/04/28 03:42:44;;;;;;;11.10;9.60;;;10.60;70.80;;;;;;5075718;28;20469;-66
2022/04/28 03:45:11;;;;;;;12.63;8.60;;;10.60;71.30;;;;;;5075614;28;20875;-66
2022/04/28 03:47:38;;;;;;;14.03;10.00;;;10.60;71.30;;;;;;5075611;28;20459;-65
2022/04/28 03:50:08;;;;;;;11.10;9.20;;;10.50;71.20;;;;;;5075673;28;20436;-65
2022/04/28 03:52:35;;;;;;;11.93;9.00;;;10.50;71.40;;;;;;5074960;28;20994;-65
2022/04/28 03:55:01;;;;;;;10.90;9.73;;;10.50;71.60;;;;;;5076096;28;20452;-65
2022/04/28 03:57:28;;;;;;;11.10;8.80;;;10.40;71.70;;;;;;5075300;28;20452;-65
2022/04/28 03:59:58;;;;;;;10.57;9.10;;;10.40;71.90;;;;;;5075459;28;20477;-65
2022/04/28 04:02:25;;;;;;;10.67;9.23;;;10.40;72.00;;;;;;5075473;28;20483;-65
2022/04/28 04:04:52;;;;;;;12.40;10.53;;;10.40;72.00;;;;;;5075549;28;20577;-65
2022/04/28 04:07:20;;;;;;;10.90;9.67;;;10.40;72.30;;;;;;5075235;28;20449;-65
2022/04/28 04:09:46;;;;;;;13.43;11.00;;;10.30;72.50;;;;;;5075388;28;20441;-65
2022/04/28 04:12:13;;;;;;;13.53;9.80;;;10.30;72.70;;;;;;5074436;28;20471;-65
2022/04/28 04:14:40;;;;;;;10.73;9.57;;;10.30;72.70;;;;;;5075018;28;20791;-64
2022/04/28 04:17:07;;;;;;;13.30;9.90;;;10.30;72.80;;;;;;5075309;28;20445;-65
2022/04/28 04:19:33;;;;;;;13.23;10.00;;;10.30;73.00;;;;;;5075009;28;20492;-65
2022/04/28 04:22:00;;;;;;;13.57;9.87;;;10.30;73.20;;;;;;5075020;28;20845;-65
2022/04/28 04:24:30;;;;;;;13.70;10.00;;;10.30;73.60;;;;;;5074898;28;20444;-65
2022/04/28 04:26:57;;;;;;;12.20;9.73;;;10.20;73.60;;;;;;5075457;28;20453;-65
2022/04/28 04:29:23;;;;;;;11.87;9.20;;;10.30;74.20;;;;;;5074825;28;20456;-65
2022/04/28 04:34:34;;;;;;;13.33;10.83;;;10.30;74.90;;;;;;5074630;28;20510;-65
2022/04/28 04:37:01;;;;;;;12.47;11.17;;;10.30;74.80;;;;;;5074814;28;20449;-65
2022/04/28 04:39:29;;;;;;;18.40;11.17;;;10.30;75.00;;;;;;5074262;28;20859;-65
2022/04/28 04:41:56;;;;;;;13.63;10.90;;;10.30;75.40;;;;;;5080022;28;20469;-66
2022/04/28 04:44:23;;;;;;;15.13;10.00;;;10.30;75.60;;;;;;5080124;28;20463;-66
2022/04/28 04:46:49;;;;;;;14.37;11.37;;;10.30;75.80;;;;;;5080225;28;20456;-66
2022/04/28 04:49:17;;;;;;;13.47;10.43;;;10.30;75.80;;;;;;5080977;28;20434;-66
2022/04/28 04:51:44;;;;;;;15.13;11.73;;;10.30;76.00;;;;;;5090003;28;20448;-67
2022/04/28 04:54:11;;;;;;;13.00;10.60;;;10.30;76.20;;;;;;5082515;28;20439;-67
2022/04/28 04:56:39;;;;;;;13.50;11.67;;;10.30;76.30;;;;;;5082228;28;20449;-66
2022/04/28 04:59:06;;;;;;;15.17;12.70;;;10.30;76.50;;;;;;5081625;28;20492;-66
2022/04/28 05:01:33;;;;;;;14.43;10.90;;;10.30;76.80;;;;;;5080599;28;20460;-66
2022/04/28 05:04:00;;;;;;;13.23;10.60;;;10.30;76.90;;;;;;5082037;28;20445;-66
2022/04/28 05:06:26;;;;;;;17.53;10.93;;;10.40;77.10;;;;;;5082181;28;20452;-66
2022/04/28 05:08:53;;;;;;;16.83;11.13;;;10.30;76.80;;;;;;5081380;28;20809;-66
2022/04/28 05:11:20;;;;;;;13.23;10.10;;;10.30;76.90;;;;;;5080835;28;20473;-67
2022/04/28 05:13:48;;;;;;;14.20;12.20;;;10.30;77.20;;;;;;5081246;28;20433;-67
2022/04/28 05:16:15;;;;;;;15.90;11.10;;;10.30;77.40;;;;;;5080643;28;20915;-66
2022/04/28 05:18:42;;;;;;;12.67;11.27;;;10.30;77.60;;;;;;5079873;28;20448;-66
2022/04/28 05:21:09;;;;;;;15.23;11.20;;;10.30;78.10;;;;;;5079418;28;20476;-67
2022/04/28 05:23:35;;;;;;;15.53;11.80;;;10.40;78.60;;;;;;5078728;28;20456;-67
2022/04/28 05:26:02;;;;;;;23.37;13.47;;;10.40;78.70;;;;;;5080025;28;20448;-67
2022/04/28 05:28:29;;;;;;;16.90;13.00;;;10.40;79.00;;;;;;5081834;28;20494;-67
2022/04/28 05:30:57;;;;;;;15.30;12.33;;;10.40;79.60;;;;;;5081476;28;21036;-67
2022/04/28 05:33:24;;;;;;;15.27;13.63;;;10.40;80.10;;;;;;5080397;28;20452;-66
2022/04/28 05:35:52;;;;;;;15.83;12.97;;;10.50;80.50;;;;;;5080387;28;20456;-66
2022/04/28 05:38:19;;;;;;;20.93;12.87;;;10.50;81.20;;;;;;5079821;28;20456;-66
2022/04/28 05:40:46;;;;;;;18.97;13.37;;;10.60;82.00;;;;;;5079795;28;20480;-66
2022/04/28 05:45:59;;;;;;;16.03;12.23;;;10.70;82.20;;;;;;5080194;28;20400;-67
2022/04/28 05:48:26;;;;;;;22.07;13.20;;;10.80;82.70;;;;;;5080375;28;20425;-67
2022/04/28 05:50:53;;;;;;;16.30;13.03;;;10.90;82.50;;;;;;5092887;28;20464;-67
2022/04/28 05:53:20;;;;;;;15.40;13.23;;;10.90;82.40;;;;;;5097138;28;20451;-66
2022/04/28 05:55:47;;;;;;;20.10;14.17;;;11.00;82.50;;;;;;5086226;28;20440;-66
2022/04/28 05:58:13;;;;;;;20.30;14.30;;;11.10;82.30;;;;;;5082465;28;20444;-66
2022/04/28 06:00:40;;;;;;;16.80;14.13;;;11.10;81.70;;;;;;5081782;28;20480;-66
2022/04/28 06:03:08;;;;;;;16.73;13.37;;;11.10;81.60;;;;;;5081180;28;20556;-66
2022/04/28 06:05:35;;;;;;;17.23;13.87;;;11.20;82.00;;;;;;5080231;28;20448;-66
2022/04/28 06:08:02;;;;;;;18.90;14.37;;;11.30;82.10;;;;;;5079380;28;20963;-67
2022/04/28 06:10:29;;;;;;;15.43;13.70;;;11.40;82.30;;;;;;5079445;28;20437;-66
2022/04/28 06:12:56;;;;;;;18.73;14.60;;;11.40;81.70;;;;;;5078343;28;20449;-66
2022/04/28 06:15:22;;;;;;;14.97;13.30;;;11.50;81.50;;;;;;5078645;28;20460;-67
2022/04/28 06:17:49;;;;;;;19.67;13.70;;;11.60;81.60;;;;;;5078510;28;20449;-67
2022/04/28 06:20:17;;;;;;;17.40;14.40;;;11.60;81.60;;;;;;5078367;28;20472;-67
2022/04/28 06:22:44;;;;;;;21.33;14.60;;;11.70;81.60;;;;;;5079207;28;20535;-67
2022/04/28 06:25:11;;;;;;;26.70;14.70;;;11.80;81.70;;;;;;5078746;28;20459;-67
2022/04/28 06:27:38;;;;;;;14.50;12.23;;;11.80;79.30;;;;;;5079176;28;20441;-66
2022/04/28 06:30:06;;;;;;;16.13;13.73;;;11.90;79.40;;;;;;5078865;28;20437;-67
2022/04/28 06:32:33;;;;;;;18.37;13.50;;;12.00;80.10;;;;;;5078881;28;20472;-67
2022/04/28 06:35:00;;;;;;;15.67;13.37;;;12.00;79.90;;;;;;5081802;28;20444;-67
2022/04/28 06:37:28;;;;;;;20.10;13.73;;;12.10;79.90;;;;;;5083605;28;20441;-66
2022/04/28 06:39:55;;;;;;;16.03;13.57;;;12.30;80.00;;;;;;5083092;28;21034;-66
2022/04/28 06:42:22;;;;;;;17.40;13.60;;;12.30;79.40;;;;;;5083442;28;20460;-66
2022/04/28 06:44:48;;;;;;;16.37;14.00;;;12.40;78.60;;;;;;5083088;28;20468;-66
2022/04/28 06:47:15;;;;;;;17.00;14.67;;;12.50;78.40;;;;;;5083478;28;20451;-66
2022/04/28 06:49:42;;;;;;;18.40;14.87;;;12.70;78.80;;;;;;5084065;28;20463;-66
2022/04/28 06:52:09;;;;;;;20.70;14.30;;;12.80;78.20;;;;;;5083026;28;20495;-67
2022/04/28 06:54:38;;;;;;;15.13;13.57;;;12.90;76.70;;;;;;5083610;28;20445;-67
2022/04/28 06:57:04;;;;;;;16.67;13.40;;;13.00;76.70;;;;;;5083189;28;21034;-66
2022/04/28 06:59:32;;;;;;;15.93;13.70;;;13.10;76.70;;;;;;5083354;28;20575;-66
2022/04/28 07:01:58;;;;;;;17.83;14.80;;;13.20;76.00;;;;;;5083014;28;20468;-66
2022/04/28 07:04:25;;;;;;;17.10;14.87;;;13.30;74.20;;;;;;5081981;28;20449;-66
2022/04/28 07:06:52;;;;;;;16.50;13.83;;;13.40;73.80;;;;;;5082143;28;20480;-67
2022/04/28 07:09:18;;;;;;;19.67;15.40;;;13.50;73.40;;;;;;5082783;28;20494;-66
2022/04/28 07:11:46;;;;;;;17.20;14.27;;;13.50;72.60;;;;;;5082623;28;20991;-66
2022/04/28 07:14:15;;;;;;;16.67;13.73;;;13.70;73.60;;;;;;5082873;28;20444;-66
2022/04/28 07:16:42;;;;;;;23.23;14.13;;;13.80;73.00;;;;;;5083139;28;20460;-66
2022/04/28 07:19:09;;;;;;;16.20;14.50;;;13.90;72.60;;;;;;5082472;28;20826;-66
2022/04/28 07:21:36;;;;;;;16.83;15.03;;;14.10;71.90;;;;;;5082461;28;20863;-66
2022/04/28 07:24:03;;;;;;;15.57;13.70;;;14.20;71.80;;;;;;5083526;28;20452;-66
2022/04/28 07:26:30;;;;;;;15.20;13.07;;;14.40;71.30;;;;;;5082943;28;20456;-66
2022/04/28 07:28:58;;;;;;;15.57;13.63;;;14.60;70.10;;;;;;5081961;28;20463;-66
2022/04/28 07:31:25;;;;;;;18.17;13.90;;;14.80;70.10;;;;;;5082836;28;20463;-67
2022/04/28 07:33:52;;;;;;;15.83;13.90;;;15.00;68.80;;;;;;5082671;28;20445;-67
2022/04/28 07:36:18;;;;;;;16.90;14.57;;;15.20;68.60;;;;;;5083069;28;20452;-67
2022/04/28 07:38:46;;;;;;;21.80;14.53;;;15.40;67.40;;;;;;5083442;28;20671;-67
2022/04/28 07:41:14;;;;;;;22.00;15.50;;;15.50;67.00;;;;;;5082909;28;20915;-66
2022/04/28 07:43:40;;;;;;;18.57;13.83;;;15.70;66.40;;;;;;5082233;28;20521;-66
2022/04/28 07:46:09;;;;;;;21.47;14.77;;;15.90;66.00;;;;;;5081052;28;20448;-66
2022/04/28 07:48:35;;;;;;;14.73;10.67;;;16.00;65.30;;;;;;5082416;28;20452;-66
2022/04/28 07:51:03;;;;;;;17.47;12.97;;;16.30;64.40;;;;;;5082600;28;20823;-66
2022/04/28 07:53:31;;;;;;;15.93;12.77;;;16.50;63.20;;;;;;5082990;28;20501;-66
2022/04/28 07:56:14;;;;;;;19.30;14.30;;;16.70;62.60;;;;;;5085603;28;20460;-66
2022/04/28 07:58:42;;;;;;;14.70;13.20;;;16.90;61.40;;;;;;5081875;28;20445;-67
2022/04/28 08:01:12;;;;;;;15.30;11.90;;;17.10;60.90;;;;;;5080446;28;20515;-67
2022/04/28 08:03:39;;;;;;;15.60;13.47;;;17.30;60.20;;;;;;5081712;28;20502;-67
2022/04/28 08:06:08;;;;;;;12.63;11.27;;;17.50;59.20;;;;;;5080738;28;20452;-67
2022/04/28 08:08:36;;;;;;;22.43;15.27;;;17.70;58.80;;;;;;5080918;28;20449;-67
2022/04/28 08:11:04;;;;;;;18.10;14.37;;;18.00;58.20;;;;;;5081845;28;20827;-67
2022/04/28 08:13:30;;;;;;;21.73;12.47;;;18.10;58.00;;;;;;5080651;28;20453;-67
2022/04/28 08:15:58;;;;;;;15.60;13.73;;;18.30;57.50;;;;;;5080509;28;20563;-66
2022/04/28 08:18:26;;;;;;;16.27;14.20;;;18.40;57.20;;;;;;5079759;28;20455;-67
2022/04/28 08:20:53;;;;;;;16.20;12.40;;;18.50;57.30;;;;;;5079846;28;21045;-67
2022/04/28 08:23:19;;;;;;;12.90;11.27;;;18.60;56.70;;;;;;5079543;28;20880;-67
2022/04/28 08:25:47;;;;;;;18.57;14.83;;;18.80;56.40;;;;;;5079512;28;20452;-67
2022/04/28 08:28:14;;;;;;;17.00;13.67;;;19.00;56.00;;;;;;5079617;28;20456;-67
2022/04/28 08:30:41;;;;;;;17.43;13.87;;;19.20;57.00;;;;;;5079405;28;20440;-67
2022/04/28 08:33:08;;;;;;;17.13;13.97;;;19.30;54.40;;;;;;5079728;28;20993;-67
2022/04/28 08:35:36;;;;;;;17.73;15.40;;;19.40;54.40;;;;;;5080493;28;20471;-67
2022/04/28 08:38:02;;;;;;;14.57;12.83;;;19.50;52.80;;;;;;5080832;28;20441;-67
2022/04/28 08:40:29;;;;;;;14.80;13.40;;;19.50;53.50;;;;;;5080090;28;20460;-67
2022/04/28 08:42:59;;;;;;;17.20;14.17;;;19.70;53.60;;;;;;5079524;28;20456;-67
2022/04/28 08:45:28;;;;;;;19.40;13.70;;;19.90;52.20;;;;;;5080248;28;20437;-67
2022/04/28 08:47:58;;;;;;;21.20;14.03;;;20.00;52.70;;;;;;5079670;28;20441;-67
2022/04/28 08:50:25;;;;;;;18.43;13.30;;;20.30;52.50;;;;;;5079920;28;20432;-67
2022/04/28 08:52:55;;;;;;;17.27;14.30;;;20.40;51.30;;;;;;5079393;28;20476;-68
2022/04/28 08:55:22;;;;;;;14.90;13.40;;;20.60;51.00;;;;;;5079541;28;20440;-68
2022/04/28 08:57:49;;;;;;;16.70;13.30;;;20.70;50.30;;;;;;5078814;28;20456;-67
2022/04/28 09:00:17;;;;;;;18.83;13.50;;;20.90;50.10;;;;;;5079255;28;20983;-68
2022/04/28 09:02:44;;;;;;;13.97;12.50;;;21.10;50.70;;;;;;5078009;28;20476;-68
2022/04/28 09:05:11;;;;;;;17.50;15.00;;;21.30;49.40;;;;;;5078055;28;20444;-67
2022/04/28 09:07:40;;;;;;;20.27;13.50;;;21.50;48.20;;;;;;5078143;28;20498;-67
2022/04/28 09:10:29;;;;;;;15.90;12.40;;;21.60;48.00;;;;;;5078511;28;20465;-67
2022/04/28 09:14:08;;;;;;;14.20;11.87;;;21.80;48.10;;;;;;5079025;28;20440;-67
2022/04/28 09:15:48;;;;;;;14.93;13.40;;;22.10;48.00;;;;;;5077328;28;20524;-67
2022/04/28 09:18:16;;;;;;;16.17;12.70;;;22.20;44.50;;;;;;5078224;28;20948;-67
2022/04/28 09:20:43;;;;;;;18.67;15.77;;;22.40;45.80;;;;;;5077831;28;20473;-67
2022/04/28 09:23:11;;;;;;;14.70;13.17;;;22.50;45.10;;;;;;5077577;28;20457;-67
2022/04/28 09:25:40;;;;;;;14.80;12.90;;;22.60;45.30;;;;;;5078558;28;20428;-67
2022/04/28 09:28:09;;;;;;;17.07;14.33;;;22.70;43.10;;;;;;5078471;28;20448;-66
2022/04/28 09:30:41;;;;;;;17.97;13.37;;;22.90;43.80;;;;;;5077593;28;20457;-67
2022/04/28 09:33:12;;;;;;;14.43;12.80;;;23.00;43.80;;;;;;5078045;28;20435;-67
2022/04/28 09:35:46;;;;;;;16.70;12.23;;;23.10;42.10;;;;;;5078152;28;20440;-67
2022/04/28 09:38:14;;;;;;;13.43;11.80;;;23.30;43.40;;;;;;5077139;28;20459;-67
2022/04/28 09:43:29;;;;;;;18.80;14.43;;;23.80;42.90;;;;;;5077704;28;20444;-67
2022/04/28 09:45:56;;;;;;;15.77;14.20;;;24.10;40.60;;;;;;5092816;28;20455;-69
2022/04/28 09:48:24;;;;;;;16.47;14.63;;;24.10;38.50;;;;;;5097393;28;20445;-69
2022/04/28 09:50:52;;;;;;;16.13;14.47;;;24.10;37.80;;;;;;5083599;28;20852;-68
2022/04/28 09:53:22;;;;;;;15.67;14.00;;;23.90;38.50;;;;;;5080374;28;20468;-68
2022/04/28 09:55:52;;;;;;;17.40;13.77;;;23.90;38.80;;;;;;5079051;28;20482;-68
2022/04/28 09:58:21;;;;;;;13.80;12.47;;;24.00;39.10;;;;;;5078340;28;20441;-68
2022/04/28 10:00:48;;;;;;;16.20;13.47;;;24.30;40.10;;;;;;5077402;28;20507;-68
2022/04/28 10:03:15;;;;;;;14.30;12.80;;;24.60;39.50;;;;;;5077860;28;20453;-67
2022/04/28 10:05:43;;;;;;;18.27;12.90;;;24.70;38.00;;;;;;5077367;28;20448;-67
2022/04/28 10:08:10;;;;;;;17.80;13.83;;;25.00;38.40;;;;;;5078139;28;20903;-67
2022/04/28 10:10:37;;;;;;;16.73;13.53;;;25.40;36.90;;;;;;5086399;28;20447;-68
2022/04/28 10:13:06;;;;;;;18.87;13.97;;;25.70;36.30;;;;;;5078738;28;20452;-68
2022/04/28 10:15:33;;;;;;;14.10;12.17;;;26.10;36.00;;;;;;5078755;28;20440;-68
2022/04/28 10:18:05;;;;;;;11.67;10.47;;;26.50;35.20;;;;;;5078061;28;20452;-68
2022/04/28 10:20:36;;;;;;;11.03;9.93;;;27.00;34.00;;;;;;5078394;28;20440;-70
2022/04/28 10:23:06;;;;;;;14.20;12.73;;;27.50;33.70;;;;;;5078911;28;20433;-66
2022/04/28 10:34:19;;;;;;;15.97;14.17;;;29.50;29.50;;;;;;5077228;28;20472;-66
2022/04/28 10:36:58;;;;;;;14.97;12.20;;;30.10;28.20;;;;;;5071737;28;20459;-66
2022/04/28 10:39:39;;;;;;;13.30;12.00;;;30.50;27.10;;;;;;5076625;28;20452;-67
2022/04/28 10:42:16;;;;;;;14.67;13.10;;;30.80;26.10;;;;;;5076936;28;20491;-66
2022/04/28 10:44:55;;;;;;;16.90;12.17;;;30.90;24.30;;;;;;5076829;28;20487;-66
2022/04/28 10:47:34;;;;;;;12.60;11.23;;;31.10;25.50;;;;;;5076229;28;20444;-67
2022/04/28 10:50:01;;;;;;;12.73;11.67;;;31.50;26.00;;;;;;5076748;28;20428;-66
2022/04/28 10:52:28;;;;;;;11.90;10.80;;;32.10;25.40;;;;;;5076348;28;20464;-67
2022/04/28 10:54:59;;;;;;;13.87;12.57;;;32.60;25.20;;;;;;5076596;28;20448;-67
2022/04/28 10:57:30;;;;;;;11.53;10.53;;;33.10;24.70;;;;;;5076853;28;20428;-68
2022/04/28 11:00:00;;;;;;;13.67;12.47;;;33.70;24.10;;;;;;5076405;28;20439;-67
2022/04/28 11:02:44;;;;;;;12.90;11.83;;;34.20;22.40;;;;;;5076001;28;20517;-66
2022/04/28 11:05:30;;;;;;;13.00;11.87;;;34.60;21.80;;;;;;5075191;28;20447;-66
2022/04/28 11:07:59;;;;;;;12.07;10.97;;;34.50;21.50;;;;;;5076508;28;20452;-68
2022/04/28 11:10:27;;;;;;;16.83;13.43;;;34.50;21.80;;;;;;5075844;28;20502;-67
2022/04/28 11:12:54;;;;;;;12.00;10.57;;;34.80;20.70;;;;;;5075864;28;20486;-67
2022/04/28 11:15:25;;;;;;;10.50;9.60;;;34.80;20.30;;;;;;5076035;28;20452;-67
2022/04/28 11:17:52;;;;;;;11.40;10.40;;;35.10;20.40;;;;;;5076131;28;20435;-66
2022/04/28 11:20:21;;;;;;;11.53;9.43;;;35.40;20.00;;;;;;5076981;28;20449;-66
2022/04/28 11:22:50;;;;;;;14.13;12.87;;;35.80;20.20;;;;;;5079816;28;20483;-67
2022/04/28 11:25:20;;;;;;;13.50;12.43;;;36.10;19.30;;;;;;5079848;28;20460;-66
2022/04/28 11:27:49;;;;;;;10.40;9.20;;;35.90;19.00;;;;;;5079474;28;20577;-66
2022/04/28 11:30:18;;;;;;;12.67;11.70;;;35.90;19.80;;;;;;5079713;28;20455;-67
2022/04/28 11:32:51;;;;;;;11.17;10.23;;;36.10;18.70;;;;;;5080434;28;20468;-67
2022/04/28 11:35:19;;;;;;;16.27;11.27;;;36.30;19.50;;;;;;5080274;28;20433;-66
2022/04/28 11:37:48;;;;;;;13.63;12.40;;;36.60;19.70;;;;;;5080021;28;20451;-66
2022/04/28 11:40:16;;;;;;;12.80;11.23;;;36.60;17.90;;;;;;5079885;28;20447;-68
2022/04/28 11:42:43;;;;;;;11.03;9.93;;;36.60;17.60;;;;;;5079653;28;20575;-67
2022/04/28 11:45:10;;;;;;;10.03;9.23;;;36.30;18.20;;;;;;5080153;28;20436;-66
2022/04/28 11:47:42;;;;;;;11.30;10.13;;;36.50;19.10;;;;;;5080151;28;20263;-68
2022/04/28 11:50:20;;;;;;;11.23;10.43;;;36.70;18.10;;;;;;5080656;28;20190;-68
2022/04/28 11:52:58;;;;;;;10.27;9.43;;;36.90;17.20;;;;;;5080454;28;20253;-68
2022/04/28 11:55:27;;;;;;;11.67;10.57;;;36.90;18.00;;;;;;5086803;28;20190;-67
2022/04/28 11:57:54;;;;;;;9.57;8.67;;;37.20;18.20;;;;;;5084589;28;20202;-66
2022/04/28 12:00:25;;;;;;;10.70;9.70;;;37.40;17.30;;;;;;5079962;28;20307;-68
2022/04/28 12:02:53;;;;;;;8.90;8.00;;;37.60;17.10;;;;;;5079311;28;20226;-68
2022/04/28 12:05:23;;;;;;;7.95;7.35;;;37.70;17.00;;;;;;5078758;28;20210;-68
2022/04/28 12:07:54;;;;;;;12.27;11.23;;;38.10;18.20;;;;;;5079310;28;20635;-67
2022/04/28 12:15:57;;;;;;;10.80;10.00;;;38.50;14.90;;;;;;5079312;28;20559;-68
2022/04/28 12:21:21;;;;;;;10.13;9.13;;;38.40;15.40;;;;;;5079052;28;20228;-67
2022/04/28 12:23:50;;;;;;;8.35;7.68;;;38.60;15.60;;;;;;5079336;28;20194;-67
2022/04/28 12:26:19;;;;;;;7.47;6.72;;;38.90;16.70;;;;;;5078844;28;20206;-67
2022/04/28 12:28:46;;;;;;;9.32;7.82;;;39.30;16.00;;;;;;5079053;28;20241;-67
2022/04/28 12:31:15;;;;;;;11.43;9.45;;;39.80;16.00;;;;;;5078277;28;20607;-68
2022/04/28 12:33:46;;;;;;;10.77;9.98;;;40.30;15.30;;;;;;5078197;28;20198;-68
2022/04/28 12:36:14;;;;;;;10.95;9.95;;;40.50;14.50;;;;;;5078818;28;20190;-67
2022/04/28 12:38:46;;;;;;;10.02;8.55;;;40.70;14.20;;;;;;5078432;28;20240;-68
2022/04/28 12:41:14;;;;;;;10.70;9.80;;;41.00;14.80;;;;;;5078043;28;20304;-67
2022/04/28 12:43:43;;;;;;;10.05;7.45;;;41.30;13.80;;;;;;5077730;28;20206;-67
2022/04/28 12:46:11;;;;;;;11.88;9.90;;;41.20;13.90;;;;;;5077947;28;20198;-67
2022/04/28 12:48:39;;;;;;;10.40;9.32;;;41.20;14.40;;;;;;5077955;28;20292;-69
2022/04/28 12:51:14;;;;;;;10.95;9.98;;;41.30;14.30;;;;;;5078028;28;20221;-70
2022/04/28 12:53:43;;;;;;;8.60;7.75;;;41.50;14.90;;;;;;5077725;28;20182;-68
2022/04/28 12:56:13;;;;;;;7.60;7.00;;;41.80;14.60;;;;;;5077841;28;20202;-68
2022/04/28 12:58:42;;;;;;;9.77;8.88;;;42.30;14.70;;;;;;5077848;28;20189;-68
2022/04/28 13:01:10;;;;;;;10.70;9.50;;;42.60;14.10;;;;;;5077253;28;20259;-68
2022/04/28 13:03:38;;;;;;;10.93;10.10;;;42.30;12.90;;;;;;5077485;28;20227;-68
2022/04/28 13:06:06;;;;;;;9.30;8.52;;;42.30;13.00;;;;;;5077572;28;20202;-68
2022/04/28 13:08:33;;;;;;;9.65;8.70;;;42.10;12.70;;;;;;5077338;28;20206;-68
2022/04/28 13:11:00;;;;;;;8.63;7.88;;;41.50;12.70;;;;;;5077250;28;20224;-68